sensor_id;sensor_type;location;lat;lon;timestamp;P1;durP1;ratioP1;P2;durP2;ratioP2
15258;SDS011;34462;51.368;12.364;2023-02-27T00:00:05;2.60;;;1.80;;
15258;SDS011;34462;51.368;12.364;2023-02-27T00:02:40;1.70;;;1.53;;
15258;SDS011;34462;51.368;12.364;2023-02-27T00:05:09;3.77;;;1.70;;
15258;SDS011;34462;51.368;12.364;2023-02-27T00:07:38;1.63;;;1.53;;
15258;SDS011;34462;51.368;12.364;2023-02-27T00:10:09;2.10;;;1.60;;
15258;SDS011;34462;51.368;12.364;2023-02-27T00:12:39;1.90;;;1.47;;
15258;SDS011;34462;51.368;12.364;2023-02-27T00:15:09;1.70;;;1.50;;
15258;SDS011;34462;51.368;12.364;2023-02-27T00:17:40;2.43;;;2.00;;
15258;SDS011;34462;51.368;12.364;2023-02-27T00:20:10;1.90;;;1.40;;
15258;SDS011;34462;51.368;12.364;2023-02-27T00:22:42;2.77;;;1.83;;
15258;SDS011;34462;51.368;12.364;2023-02-27T00:25:13;2.07;;;1.60;;
15258;SDS011;34462;51.368;12.364;2023-02-27T00:27:42;2.30;;;1.50;;
15258;SDS011;34462;51.368;12.364;2023-02-27T00:30:11;2.23;;;1.60;;
15258;SDS011;34462;51.368;12.364;2023-02-27T00:32:41;3.10;;;1.83;;
15258;SDS011;34462;51.368;12.364;2023-02-27T00:35:11;2.43;;;1.50;;
15258;SDS011;34462;51.368;12.364;2023-02-27T00:37:39;3.27;;;1.97;;
15258;SDS011;34462;51.368;12.364;2023-02-27T00:40:08;3.53;;;1.67;;
15258;SDS011;34462;51.368;12.364;2023-02-27T00:42:39;2.13;;;1.60;;
15258;SDS011;34462;51.368;12.364;2023-02-27T00:45:08;2.77;;;1.57;;
15258;SDS011;34462;51.368;12.364;2023-02-27T00:47:37;2.23;;;1.83;;
15258;SDS011;34462;51.368;12.364;2023-02-27T00:50:05;3.27;;;1.80;;
15258;SDS011;34462;51.368;12.364;2023-02-27T00:52:34;2.17;;;1.60;;
15258;SDS011;34462;51.368;12.364;2023-02-27T00:55:03;2.60;;;1.77;;
15258;SDS011;34462;51.368;12.364;2023-02-27T00:57:32;1.60;;;1.40;;
15258;SDS011;34462;51.368;12.364;2023-02-27T01:00:02;3.20;;;1.73;;
15258;SDS011;34462;51.368;12.364;2023-02-27T01:02:33;2.47;;;1.80;;
15258;SDS011;34462;51.368;12.364;2023-02-27T01:05:01;2.70;;;1.73;;
15258;SDS011;34462;51.368;12.364;2023-02-27T01:07:30;1.83;;;1.60;;
15258;SDS011;34462;51.368;12.364;2023-02-27T01:09:58;2.57;;;1.80;;
15258;SDS011;34462;51.368;12.364;2023-02-27T01:12:27;2.00;;;1.57;;
15258;SDS011;34462;51.368;12.364;2023-02-27T01:14:55;2.70;;;1.57;;
15258;SDS011;34462;51.368;12.364;2023-02-27T01:17:24;2.77;;;1.90;;
15258;SDS011;34462;51.368;12.364;2023-02-27T01:19:53;3.37;;;2.00;;
15258;SDS011;34462;51.368;12.364;2023-02-27T01:22:21;2.87;;;1.80;;
15258;SDS011;34462;51.368;12.364;2023-02-27T01:24:49;2.47;;;1.70;;
15258;SDS011;34462;51.368;12.364;2023-02-27T01:27:17;3.87;;;2.00;;
15258;SDS011;34462;51.368;12.364;2023-02-27T01:29:46;2.70;;;1.80;;
15258;SDS011;34462;51.368;12.364;2023-02-27T01:32:14;2.30;;;1.90;;
15258;SDS011;34462;51.368;12.364;2023-02-27T01:34:43;1.77;;;1.60;;
15258;SDS011;34462;51.368;12.364;2023-02-27T01:37:12;3.23;;;2.03;;
15258;SDS011;34462;51.368;12.364;2023-02-27T01:39:40;2.70;;;2.20;;
15258;SDS011;34462;51.368;12.364;2023-02-27T01:42:12;3.40;;;1.87;;
15258;SDS011;34462;51.368;12.364;2023-02-27T01:47:53;2.50;;;2.00;;
15258;SDS011;34462;51.368;12.364;2023-02-27T01:50:30;2.63;;;2.20;;
15258;SDS011;34462;51.368;12.364;2023-02-27T01:53:01;2.50;;;1.70;;
15258;SDS011;34462;51.368;12.364;2023-02-27T01:55:32;4.23;;;2.10;;
15258;SDS011;34462;51.368;12.364;2023-02-27T01:58:05;2.43;;;1.77;;
15258;SDS011;34462;51.368;12.364;2023-02-27T02:00:37;2.07;;;1.87;;
15258;SDS011;34462;51.368;12.364;2023-02-27T02:03:07;1.97;;;1.67;;
15258;SDS011;34462;51.368;12.364;2023-02-27T02:05:46;1.90;;;1.60;;
15258;SDS011;34462;51.368;12.364;2023-02-27T02:08:16;3.00;;;1.87;;
15258;SDS011;34462;51.368;12.364;2023-02-27T02:10:48;2.20;;;1.77;;
15258;SDS011;34462;51.368;12.364;2023-02-27T02:13:19;2.93;;;1.70;;
15258;SDS011;34462;51.368;12.364;2023-02-27T02:15:52;2.30;;;1.90;;
15258;SDS011;34462;51.368;12.364;2023-02-27T02:18:46;2.23;;;1.80;;
15258;SDS011;34462;51.368;12.364;2023-02-27T02:21:35;3.53;;;1.73;;
15258;SDS011;34462;51.368;12.364;2023-02-27T02:28:10;2.13;;;1.73;;
15258;SDS011;34462;51.368;12.364;2023-02-27T02:31:10;2.30;;;1.80;;
15258;SDS011;34462;51.368;12.364;2023-02-27T02:34:14;3.40;;;2.00;;
15258;SDS011;34462;51.368;12.364;2023-02-27T02:40:47;2.77;;;1.80;;
15258;SDS011;34462;51.368;12.364;2023-02-27T02:43:24;2.47;;;1.80;;
15258;SDS011;34462;51.368;12.364;2023-02-27T02:46:00;2.53;;;1.83;;
15258;SDS011;34462;51.368;12.364;2023-02-27T02:48:37;2.13;;;1.57;;
15258;SDS011;34462;51.368;12.364;2023-02-27T02:51:15;4.33;;;1.80;;
15258;SDS011;34462;51.368;12.364;2023-02-27T02:53:55;2.80;;;2.00;;
15258;SDS011;34462;51.368;12.364;2023-02-27T02:56:36;2.20;;;1.60;;
15258;SDS011;34462;51.368;12.364;2023-02-27T02:59:17;2.93;;;2.07;;
15258;SDS011;34462;51.368;12.364;2023-02-27T03:01:57;2.63;;;1.60;;
15258;SDS011;34462;51.368;12.364;2023-02-27T03:04:33;2.60;;;1.77;;
15258;SDS011;34462;51.368;12.364;2023-02-27T03:07:08;1.97;;;1.70;;
15258;SDS011;34462;51.368;12.364;2023-02-27T03:09:44;2.90;;;1.93;;
15258;SDS011;34462;51.368;12.364;2023-02-27T03:12:21;2.00;;;1.70;;
15258;SDS011;34462;51.368;12.364;2023-02-27T03:14:53;2.47;;;1.93;;
15258;SDS011;34462;51.368;12.364;2023-02-27T03:17:29;2.37;;;1.87;;
15258;SDS011;34462;51.368;12.364;2023-02-27T03:20:09;2.90;;;2.30;;
15258;SDS011;34462;51.368;12.364;2023-02-27T03:22:46;2.00;;;1.70;;
15258;SDS011;34462;51.368;12.364;2023-02-27T03:25:20;2.93;;;1.90;;
15258;SDS011;34462;51.368;12.364;2023-02-27T03:27:54;3.00;;;1.77;;
15258;SDS011;34462;51.368;12.364;2023-02-27T03:30:28;2.93;;;1.77;;
15258;SDS011;34462;51.368;12.364;2023-02-27T03:33:04;2.33;;;1.60;;
15258;SDS011;34462;51.368;12.364;2023-02-27T03:35:42;1.83;;;1.67;;
15258;SDS011;34462;51.368;12.364;2023-02-27T03:38:19;1.50;;;1.40;;
15258;SDS011;34462;51.368;12.364;2023-02-27T03:40:57;2.13;;;1.73;;
15258;SDS011;34462;51.368;12.364;2023-02-27T03:43:42;2.10;;;1.57;;
15258;SDS011;34462;51.368;12.364;2023-02-27T03:46:18;5.90;;;1.97;;
15258;SDS011;34462;51.368;12.364;2023-02-27T03:48:51;2.87;;;1.60;;
15258;SDS011;34462;51.368;12.364;2023-02-27T03:51:20;3.43;;;1.90;;
15258;SDS011;34462;51.368;12.364;2023-02-27T03:53:55;2.33;;;1.80;;
15258;SDS011;34462;51.368;12.364;2023-02-27T03:56:30;2.67;;;1.90;;
15258;SDS011;34462;51.368;12.364;2023-02-27T03:59:08;2.77;;;2.00;;
15258;SDS011;34462;51.368;12.364;2023-02-27T04:01:37;2.97;;;1.80;;
15258;SDS011;34462;51.368;12.364;2023-02-27T04:04:06;3.43;;;1.93;;
15258;SDS011;34462;51.368;12.364;2023-02-27T04:06:39;2.53;;;1.60;;
15258;SDS011;34462;51.368;12.364;2023-02-27T04:09:36;2.37;;;1.80;;
15258;SDS011;34462;51.368;12.364;2023-02-27T04:12:46;2.00;;;1.70;;
15258;SDS011;34462;51.368;12.364;2023-02-27T04:16:00;3.03;;;1.80;;
15258;SDS011;34462;51.368;12.364;2023-02-27T04:19:02;4.00;;;1.70;;
15258;SDS011;34462;51.368;12.364;2023-02-27T04:21:56;2.63;;;1.77;;
15258;SDS011;34462;51.368;12.364;2023-02-27T04:24:40;3.53;;;2.07;;
15258;SDS011;34462;51.368;12.364;2023-02-27T04:27:23;3.37;;;1.80;;
15258;SDS011;34462;51.368;12.364;2023-02-27T04:30:09;1.90;;;1.70;;
15258;SDS011;34462;51.368;12.364;2023-02-27T04:32:53;2.70;;;1.80;;
15258;SDS011;34462;51.368;12.364;2023-02-27T04:35:30;2.20;;;1.90;;
15258;SDS011;34462;51.368;12.364;2023-02-27T04:38:08;2.47;;;1.67;;
15258;SDS011;34462;51.368;12.364;2023-02-27T04:40:46;2.60;;;1.70;;
15258;SDS011;34462;51.368;12.364;2023-02-27T04:43:20;2.73;;;1.80;;
15258;SDS011;34462;51.368;12.364;2023-02-27T04:45:53;2.87;;;1.80;;
15258;SDS011;34462;51.368;12.364;2023-02-27T04:48:28;2.30;;;1.97;;
15258;SDS011;34462;51.368;12.364;2023-02-27T04:51:04;3.30;;;1.90;;
15258;SDS011;34462;51.368;12.364;2023-02-27T04:53:42;2.47;;;1.80;;
15258;SDS011;34462;51.368;12.364;2023-02-27T04:56:19;1.90;;;1.50;;
15258;SDS011;34462;51.368;12.364;2023-02-27T04:58:56;3.93;;;1.90;;
15258;SDS011;34462;51.368;12.364;2023-02-27T05:01:33;2.00;;;1.60;;
15258;SDS011;34462;51.368;12.364;2023-02-27T05:04:09;1.50;;;1.27;;
15258;SDS011;34462;51.368;12.364;2023-02-27T05:06:45;2.83;;;1.70;;
15258;SDS011;34462;51.368;12.364;2023-02-27T05:09:17;3.17;;;1.53;;
15258;SDS011;34462;51.368;12.364;2023-02-27T05:11:55;2.27;;;1.60;;
15258;SDS011;34462;51.368;12.364;2023-02-27T05:14:30;3.20;;;1.93;;
15258;SDS011;34462;51.368;12.364;2023-02-27T05:17:07;2.50;;;1.83;;
15258;SDS011;34462;51.368;12.364;2023-02-27T05:19:42;2.00;;;1.70;;
15258;SDS011;34462;51.368;12.364;2023-02-27T05:22:15;4.47;;;2.40;;
15258;SDS011;34462;51.368;12.364;2023-02-27T05:24:56;2.50;;;2.10;;
15258;SDS011;34462;51.368;12.364;2023-02-27T05:27:37;3.97;;;2.17;;
15258;SDS011;34462;51.368;12.364;2023-02-27T05:30:16;3.80;;;2.03;;
15258;SDS011;34462;51.368;12.364;2023-02-27T05:32:54;4.50;;;2.00;;
15258;SDS011;34462;51.368;12.364;2023-02-27T05:35:30;3.03;;;2.10;;
15258;SDS011;34462;51.368;12.364;2023-02-27T05:38:05;3.50;;;1.87;;
15258;SDS011;34462;51.368;12.364;2023-02-27T05:40:39;3.37;;;2.30;;
15258;SDS011;34462;51.368;12.364;2023-02-27T05:43:14;5.73;;;2.00;;
15258;SDS011;34462;51.368;12.364;2023-02-27T05:45:49;3.00;;;2.13;;
15258;SDS011;34462;51.368;12.364;2023-02-27T05:48:25;4.10;;;2.20;;
15258;SDS011;34462;51.368;12.364;2023-02-27T05:51:00;3.00;;;2.40;;
15258;SDS011;34462;51.368;12.364;2023-02-27T05:53:32;3.57;;;2.53;;
15258;SDS011;34462;51.368;12.364;2023-02-27T05:56:10;2.97;;;2.20;;
15258;SDS011;34462;51.368;12.364;2023-02-27T05:58:44;3.13;;;2.20;;
15258;SDS011;34462;51.368;12.364;2023-02-27T06:01:20;4.20;;;2.30;;
15258;SDS011;34462;51.368;12.364;2023-02-27T06:03:48;4.03;;;2.30;;
15258;SDS011;34462;51.368;12.364;2023-02-27T06:06:18;4.13;;;2.07;;
15258;SDS011;34462;51.368;12.364;2023-02-27T06:08:48;5.97;;;3.00;;
15258;SDS011;34462;51.368;12.364;2023-02-27T06:11:16;8.70;;;4.60;;
15258;SDS011;34462;51.368;12.364;2023-02-27T06:13:45;5.47;;;3.70;;
15258;SDS011;34462;51.368;12.364;2023-02-27T06:16:13;4.60;;;3.43;;
15258;SDS011;34462;51.368;12.364;2023-02-27T06:18:42;4.40;;;2.90;;
15258;SDS011;34462;51.368;12.364;2023-02-27T06:21:10;4.60;;;2.87;;
15258;SDS011;34462;51.368;12.364;2023-02-27T06:23:41;4.30;;;2.47;;
15258;SDS011;34462;51.368;12.364;2023-02-27T06:26:09;5.80;;;2.67;;
15258;SDS011;34462;51.368;12.364;2023-02-27T06:28:39;3.27;;;2.50;;
15258;SDS011;34462;51.368;12.364;2023-02-27T06:31:07;6.73;;;3.37;;
15258;SDS011;34462;51.368;12.364;2023-02-27T06:33:36;4.30;;;2.60;;
15258;SDS011;34462;51.368;12.364;2023-02-27T06:36:04;2.97;;;2.53;;
15258;SDS011;34462;51.368;12.364;2023-02-27T06:38:33;2.97;;;2.30;;
15258;SDS011;34462;51.368;12.364;2023-02-27T06:41:03;4.00;;;2.67;;
15258;SDS011;34462;51.368;12.364;2023-02-27T06:43:32;3.90;;;3.10;;
15258;SDS011;34462;51.368;12.364;2023-02-27T06:46:02;3.67;;;2.63;;
15258;SDS011;34462;51.368;12.364;2023-02-27T06:48:30;3.47;;;2.40;;
15258;SDS011;34462;51.368;12.364;2023-02-27T06:50:59;5.07;;;2.97;;
15258;SDS011;34462;51.368;12.364;2023-02-27T06:53:27;4.53;;;2.07;;
15258;SDS011;34462;51.368;12.364;2023-02-27T06:55:55;4.73;;;2.40;;
15258;SDS011;34462;51.368;12.364;2023-02-27T06:58:25;3.60;;;2.30;;
15258;SDS011;34462;51.368;12.364;2023-02-27T07:00:54;4.43;;;2.10;;
15258;SDS011;34462;51.368;12.364;2023-02-27T07:03:25;3.63;;;2.23;;
15258;SDS011;34462;51.368;12.364;2023-02-27T07:05:55;4.07;;;2.37;;
15258;SDS011;34462;51.368;12.364;2023-02-27T07:08:24;2.73;;;2.33;;
15258;SDS011;34462;51.368;12.364;2023-02-27T07:10:52;2.47;;;1.97;;
15258;SDS011;34462;51.368;12.364;2023-02-27T07:13:20;3.83;;;2.20;;
15258;SDS011;34462;51.368;12.364;2023-02-27T07:15:50;4.53;;;2.50;;
15258;SDS011;34462;51.368;12.364;2023-02-27T07:18:19;4.33;;;2.03;;
15258;SDS011;34462;51.368;12.364;2023-02-27T07:20:48;4.67;;;2.20;;
15258;SDS011;34462;51.368;12.364;2023-02-27T07:23:17;2.40;;;2.00;;
15258;SDS011;34462;51.368;12.364;2023-02-27T07:25:45;2.63;;;2.20;;
15258;SDS011;34462;51.368;12.364;2023-02-27T07:28:14;5.27;;;2.37;;
15258;SDS011;34462;51.368;12.364;2023-02-27T07:30:44;3.77;;;2.03;;
15258;SDS011;34462;51.368;12.364;2023-02-27T07:33:14;2.67;;;2.00;;
15258;SDS011;34462;51.368;12.364;2023-02-27T07:35:43;3.23;;;2.37;;
15258;SDS011;34462;51.368;12.364;2023-02-27T07:38:12;3.57;;;2.10;;
15258;SDS011;34462;51.368;12.364;2023-02-27T07:40:40;4.27;;;2.10;;
15258;SDS011;34462;51.368;12.364;2023-02-27T07:43:08;4.57;;;2.00;;
15258;SDS011;34462;51.368;12.364;2023-02-27T07:45:36;3.13;;;2.03;;
15258;SDS011;34462;51.368;12.364;2023-02-27T07:48:05;3.43;;;2.40;;
15258;SDS011;34462;51.368;12.364;2023-02-27T07:50:35;3.93;;;2.10;;
15258;SDS011;34462;51.368;12.364;2023-02-27T07:53:03;2.93;;;2.27;;
15258;SDS011;34462;51.368;12.364;2023-02-27T07:55:33;3.60;;;1.90;;
15258;SDS011;34462;51.368;12.364;2023-02-27T07:58:01;3.37;;;2.10;;
15258;SDS011;34462;51.368;12.364;2023-02-27T08:00:29;3.03;;;1.80;;
15258;SDS011;34462;51.368;12.364;2023-02-27T08:02:57;3.30;;;2.23;;
15258;SDS011;34462;51.368;12.364;2023-02-27T08:05:26;2.53;;;1.77;;
15258;SDS011;34462;51.368;12.364;2023-02-27T08:07:56;3.53;;;2.00;;
15258;SDS011;34462;51.368;12.364;2023-02-27T08:10:24;3.83;;;2.07;;
15258;SDS011;34462;51.368;12.364;2023-02-27T08:12:53;4.20;;;2.10;;
15258;SDS011;34462;51.368;12.364;2023-02-27T08:15:21;2.40;;;2.20;;
15258;SDS011;34462;51.368;12.364;2023-02-27T08:17:49;3.70;;;2.43;;
15258;SDS011;34462;51.368;12.364;2023-02-27T08:20:18;2.93;;;1.97;;
15258;SDS011;34462;51.368;12.364;2023-02-27T08:22:48;3.23;;;2.10;;
15258;SDS011;34462;51.368;12.364;2023-02-27T08:25:17;5.70;;;2.07;;
15258;SDS011;34462;51.368;12.364;2023-02-27T08:27:46;2.60;;;2.10;;
15258;SDS011;34462;51.368;12.364;2023-02-27T08:30:15;3.40;;;2.17;;
15258;SDS011;34462;51.368;12.364;2023-02-27T08:32:43;2.80;;;2.20;;
15258;SDS011;34462;51.368;12.364;2023-02-27T08:35:12;3.20;;;2.03;;
15258;SDS011;34462;51.368;12.364;2023-02-27T08:37:40;2.93;;;2.30;;
15258;SDS011;34462;51.368;12.364;2023-02-27T08:40:09;3.07;;;2.33;;
15258;SDS011;34462;51.368;12.364;2023-02-27T08:42:40;4.50;;;2.80;;
15258;SDS011;34462;51.368;12.364;2023-02-27T08:45:08;4.70;;;2.33;;
15258;SDS011;34462;51.368;12.364;2023-02-27T08:47:38;3.77;;;2.30;;
15258;SDS011;34462;51.368;12.364;2023-02-27T08:50:06;4.10;;;2.50;;
15258;SDS011;34462;51.368;12.364;2023-02-27T08:52:37;4.33;;;2.03;;
15258;SDS011;34462;51.368;12.364;2023-02-27T08:55:07;4.93;;;2.40;;
15258;SDS011;34462;51.368;12.364;2023-02-27T08:57:35;4.47;;;2.87;;
15258;SDS011;34462;51.368;12.364;2023-02-27T09:00:06;3.23;;;1.97;;
15258;SDS011;34462;51.368;12.364;2023-02-27T09:02:39;3.30;;;2.30;;
15258;SDS011;34462;51.368;12.364;2023-02-27T09:05:08;3.47;;;2.30;;
15258;SDS011;34462;51.368;12.364;2023-02-27T09:07:36;3.33;;;2.40;;
15258;SDS011;34462;51.368;12.364;2023-02-27T09:10:05;3.27;;;2.60;;
15258;SDS011;34462;51.368;12.364;2023-02-27T09:12:34;3.40;;;2.30;;
15258;SDS011;34462;51.368;12.364;2023-02-27T09:15:02;3.50;;;2.10;;
15258;SDS011;34462;51.368;12.364;2023-02-27T09:17:34;6.63;;;2.90;;
15258;SDS011;34462;51.368;12.364;2023-02-27T09:20:02;4.30;;;2.73;;
15258;SDS011;34462;51.368;12.364;2023-02-27T09:22:34;3.40;;;2.40;;
15258;SDS011;34462;51.368;12.364;2023-02-27T09:25:02;4.13;;;2.83;;
15258;SDS011;34462;51.368;12.364;2023-02-27T09:27:32;5.07;;;2.50;;
15258;SDS011;34462;51.368;12.364;2023-02-27T09:30:00;3.27;;;2.40;;
15258;SDS011;34462;51.368;12.364;2023-02-27T09:32:29;4.27;;;2.70;;
15258;SDS011;34462;51.368;12.364;2023-02-27T09:34:58;2.97;;;2.10;;
15258;SDS011;34462;51.368;12.364;2023-02-27T09:37:26;4.53;;;2.73;;
15258;SDS011;34462;51.368;12.364;2023-02-27T09:39:54;4.33;;;2.60;;
15258;SDS011;34462;51.368;12.364;2023-02-27T09:42:23;4.03;;;2.50;;
15258;SDS011;34462;51.368;12.364;2023-02-27T09:45:00;3.87;;;2.50;;
15258;SDS011;34462;51.368;12.364;2023-02-27T09:47:34;3.33;;;2.70;;
15258;SDS011;34462;51.368;12.364;2023-02-27T09:50:16;3.87;;;2.30;;
15258;SDS011;34462;51.368;12.364;2023-02-27T09:53:05;3.70;;;2.33;;
15258;SDS011;34462;51.368;12.364;2023-02-27T09:55:40;4.33;;;2.70;;
15258;SDS011;34462;51.368;12.364;2023-02-27T09:58:17;4.83;;;2.60;;
15258;SDS011;34462;51.368;12.364;2023-02-27T10:01:12;3.23;;;2.50;;
15258;SDS011;34462;51.368;12.364;2023-02-27T10:03:54;3.10;;;2.70;;
15258;SDS011;34462;51.368;12.364;2023-02-27T10:06:52;3.27;;;2.30;;
15258;SDS011;34462;51.368;12.364;2023-02-27T10:09:34;4.80;;;2.47;;
15258;SDS011;34462;51.368;12.364;2023-02-27T10:12:19;3.27;;;2.60;;
15258;SDS011;34462;51.368;12.364;2023-02-27T10:15:04;4.90;;;2.57;;
15258;SDS011;34462;51.368;12.364;2023-02-27T10:17:43;4.50;;;2.20;;
15258;SDS011;34462;51.368;12.364;2023-02-27T10:20:21;2.80;;;2.30;;
15258;SDS011;34462;51.368;12.364;2023-02-27T10:22:56;2.30;;;1.90;;
15258;SDS011;34462;51.368;12.364;2023-02-27T10:25:31;2.63;;;2.00;;
15258;SDS011;34462;51.368;12.364;2023-02-27T10:28:11;4.43;;;2.13;;
15258;SDS011;34462;51.368;12.364;2023-02-27T10:30:42;2.10;;;1.90;;
15258;SDS011;34462;51.368;12.364;2023-02-27T10:33:18;2.83;;;2.17;;
15258;SDS011;34462;51.368;12.364;2023-02-27T10:35:59;4.40;;;2.30;;
15258;SDS011;34462;51.368;12.364;2023-02-27T10:38:31;3.80;;;2.20;;
15258;SDS011;34462;51.368;12.364;2023-02-27T10:41:03;3.63;;;1.93;;
15258;SDS011;34462;51.368;12.364;2023-02-27T10:43:36;2.87;;;2.13;;
15258;SDS011;34462;51.368;12.364;2023-02-27T10:46:06;4.60;;;2.27;;
15258;SDS011;34462;51.368;12.364;2023-02-27T10:48:41;3.20;;;2.50;;
15258;SDS011;34462;51.368;12.364;2023-02-27T10:54:14;4.60;;;2.20;;
15258;SDS011;34462;51.368;12.364;2023-02-27T10:56:49;3.70;;;2.40;;
15258;SDS011;34462;51.368;12.364;2023-02-27T10:59:22;3.30;;;1.97;;
15258;SDS011;34462;51.368;12.364;2023-02-27T11:01:53;2.73;;;1.80;;
15258;SDS011;34462;51.368;12.364;2023-02-27T11:04:27;2.67;;;1.80;;
15258;SDS011;34462;51.368;12.364;2023-02-27T11:07:02;3.20;;;1.87;;
15258;SDS011;34462;51.368;12.364;2023-02-27T11:09:34;3.47;;;1.67;;
15258;SDS011;34462;51.368;12.364;2023-02-27T11:12:10;2.73;;;1.57;;
15258;SDS011;34462;51.368;12.364;2023-02-27T11:14:48;2.10;;;1.80;;
15258;SDS011;34462;51.368;12.364;2023-02-27T11:17:20;3.30;;;1.63;;
15258;SDS011;34462;51.368;12.364;2023-02-27T11:19:54;3.40;;;1.90;;
15258;SDS011;34462;51.368;12.364;2023-02-27T11:22:25;1.83;;;1.63;;
15258;SDS011;34462;51.368;12.364;2023-02-27T11:25:13;3.43;;;2.10;;
15258;SDS011;34462;51.368;12.364;2023-02-27T11:27:46;2.03;;;1.80;;
15258;SDS011;34462;51.368;12.364;2023-02-27T11:30:22;3.60;;;1.80;;
15258;SDS011;34462;51.368;12.364;2023-02-27T11:32:54;3.23;;;1.80;;
15258;SDS011;34462;51.368;12.364;2023-02-27T11:35:25;3.07;;;2.10;;
15258;SDS011;34462;51.368;12.364;2023-02-27T11:37:59;2.47;;;1.87;;
15258;SDS011;34462;51.368;12.364;2023-02-27T11:40:33;3.17;;;2.17;;
15258;SDS011;34462;51.368;12.364;2023-02-27T11:43:14;2.90;;;1.90;;
15258;SDS011;34462;51.368;12.364;2023-02-27T11:45:48;2.17;;;1.97;;
15258;SDS011;34462;51.368;12.364;2023-02-27T11:48:45;3.00;;;1.87;;
15258;SDS011;34462;51.368;12.364;2023-02-27T11:54:22;2.93;;;1.73;;
15258;SDS011;34462;51.368;12.364;2023-02-27T11:57:06;2.80;;;1.83;;
15258;SDS011;34462;51.368;12.364;2023-02-27T11:59:49;3.83;;;1.90;;
15258;SDS011;34462;51.368;12.364;2023-02-27T12:02:27;3.00;;;1.73;;
15258;SDS011;34462;51.368;12.364;2023-02-27T12:05:14;3.03;;;1.80;;
15258;SDS011;34462;51.368;12.364;2023-02-27T12:07:45;2.03;;;1.63;;
15258;SDS011;34462;51.368;12.364;2023-02-27T12:10:23;2.33;;;1.07;;
15258;SDS011;34462;51.368;12.364;2023-02-27T12:12:56;2.70;;;1.20;;
15258;SDS011;34462;51.368;12.364;2023-02-27T12:15:31;3.00;;;1.30;;
15258;SDS011;34462;51.368;12.364;2023-02-27T12:18:12;1.67;;;1.13;;
15258;SDS011;34462;51.368;12.364;2023-02-27T12:20:48;2.93;;;1.53;;
15258;SDS011;34462;51.368;12.364;2023-02-27T12:23:25;2.53;;;1.20;;
15258;SDS011;34462;51.368;12.364;2023-02-27T12:26:04;1.57;;;1.07;;
15258;SDS011;34462;51.368;12.364;2023-02-27T12:28:46;1.70;;;1.30;;
15258;SDS011;34462;51.368;12.364;2023-02-27T12:31:26;2.13;;;1.50;;
15258;SDS011;34462;51.368;12.364;2023-02-27T12:34:10;2.60;;;1.47;;
15258;SDS011;34462;51.368;12.364;2023-02-27T12:36:52;1.90;;;1.40;;
15258;SDS011;34462;51.368;12.364;2023-02-27T12:39:22;1.53;;;1.17;;
15258;SDS011;34462;51.368;12.364;2023-02-27T12:42:00;2.67;;;1.40;;
15258;SDS011;34462;51.368;12.364;2023-02-27T12:45:07;3.43;;;1.77;;
15258;SDS011;34462;51.368;12.364;2023-02-27T12:48:11;1.87;;;1.43;;
15258;SDS011;34462;51.368;12.364;2023-02-27T12:50:55;2.87;;;1.50;;
15258;SDS011;34462;51.368;12.364;2023-02-27T12:53:49;5.30;;;1.70;;
15258;SDS011;34462;51.368;12.364;2023-02-27T12:56:36;2.77;;;1.50;;
15258;SDS011;34462;51.368;12.364;2023-02-27T12:59:28;3.53;;;1.70;;
15258;SDS011;34462;51.368;12.364;2023-02-27T13:02:26;4.50;;;1.90;;
15258;SDS011;34462;51.368;12.364;2023-02-27T13:05:25;2.63;;;1.83;;
15258;SDS011;34462;51.368;12.364;2023-02-27T13:08:05;2.17;;;1.50;;
15258;SDS011;34462;51.368;12.364;2023-02-27T13:10:47;2.80;;;1.40;;
15258;SDS011;34462;51.368;12.364;2023-02-27T13:13:25;5.53;;;1.57;;
15258;SDS011;34462;51.368;12.364;2023-02-27T13:16:04;3.40;;;1.77;;
15258;SDS011;34462;51.368;12.364;2023-02-27T13:18:42;2.67;;;1.40;;
15258;SDS011;34462;51.368;12.364;2023-02-27T13:21:18;2.30;;;1.50;;
15258;SDS011;34462;51.368;12.364;2023-02-27T13:23:56;2.50;;;1.20;;
15258;SDS011;34462;51.368;12.364;2023-02-27T13:26:43;4.97;;;1.90;;
15258;SDS011;34462;51.368;12.364;2023-02-27T13:29:20;2.90;;;1.53;;
15258;SDS011;34462;51.368;12.364;2023-02-27T13:31:56;2.93;;;1.40;;
15258;SDS011;34462;51.368;12.364;2023-02-27T13:34:39;2.83;;;1.20;;
15258;SDS011;34462;51.368;12.364;2023-02-27T13:37:13;4.57;;;1.53;;
15258;SDS011;34462;51.368;12.364;2023-02-27T13:39:52;1.27;;;1.00;;
15258;SDS011;34462;51.368;12.364;2023-02-27T13:48:47;1.43;;;0.90;;
15258;SDS011;34462;51.368;12.364;2023-02-27T13:54:19;2.90;;;1.50;;
15258;SDS011;34462;51.368;12.364;2023-02-27T13:57:04;1.97;;;1.00;;
15258;SDS011;34462;51.368;12.364;2023-02-27T13:59:53;2.00;;;1.10;;
15258;SDS011;34462;51.368;12.364;2023-02-27T14:02:37;1.17;;;1.07;;
15258;SDS011;34462;51.368;12.364;2023-02-27T14:05:27;2.13;;;1.30;;
15258;SDS011;34462;51.368;12.364;2023-02-27T14:08:07;2.73;;;1.10;;
15258;SDS011;34462;51.368;12.364;2023-02-27T14:10:49;1.80;;;1.10;;
15258;SDS011;34462;51.368;12.364;2023-02-27T14:16:56;1.83;;;1.20;;
15258;SDS011;34462;51.368;12.364;2023-02-27T14:22:27;2.33;;;1.30;;
15258;SDS011;34462;51.368;12.364;2023-02-27T14:25:12;1.47;;;1.33;;
15258;SDS011;34462;51.368;12.364;2023-02-27T14:27:53;1.90;;;1.47;;
15258;SDS011;34462;51.368;12.364;2023-02-27T14:30:27;1.83;;;1.30;;
15258;SDS011;34462;51.368;12.364;2023-02-27T14:33:08;3.17;;;1.30;;
15258;SDS011;34462;51.368;12.364;2023-02-27T14:36:05;3.60;;;1.60;;
15258;SDS011;34462;51.368;12.364;2023-02-27T14:38:41;2.50;;;1.67;;
15258;SDS011;34462;51.368;12.364;2023-02-27T14:41:13;1.60;;;1.30;;
15258;SDS011;34462;51.368;12.364;2023-02-27T14:43:59;2.50;;;1.53;;
15258;SDS011;34462;51.368;12.364;2023-02-27T14:46:29;1.73;;;1.50;;
15258;SDS011;34462;51.368;12.364;2023-02-27T14:49:03;2.33;;;1.53;;
15258;SDS011;34462;51.368;12.364;2023-02-27T14:51:43;1.87;;;1.77;;
15258;SDS011;34462;51.368;12.364;2023-02-27T14:54:12;2.00;;;1.80;;
15258;SDS011;34462;51.368;12.364;2023-02-27T14:56:51;2.60;;;1.83;;
15258;SDS011;34462;51.368;12.364;2023-02-27T14:59:21;1.80;;;1.70;;
15258;SDS011;34462;51.368;12.364;2023-02-27T15:01:51;2.87;;;2.00;;
15258;SDS011;34462;51.368;12.364;2023-02-27T15:04:24;2.73;;;2.17;;
15258;SDS011;34462;51.368;12.364;2023-02-27T15:06:55;2.43;;;2.00;;
15258;SDS011;34462;51.368;12.364;2023-02-27T15:09:27;2.20;;;2.00;;
15258;SDS011;34462;51.368;12.364;2023-02-27T15:12:01;3.77;;;3.13;;
15258;SDS011;34462;51.368;12.364;2023-02-27T15:14:31;5.00;;;3.10;;
15258;SDS011;34462;51.368;12.364;2023-02-27T15:17:03;4.30;;;2.47;;
15258;SDS011;34462;51.368;12.364;2023-02-27T15:19:46;2.77;;;2.30;;
15258;SDS011;34462;51.368;12.364;2023-02-27T15:22:19;2.43;;;2.23;;
15258;SDS011;34462;51.368;12.364;2023-02-27T15:25:04;2.53;;;2.03;;
15258;SDS011;34462;51.368;12.364;2023-02-27T15:27:33;2.00;;;1.80;;
15258;SDS011;34462;51.368;12.364;2023-02-27T15:30:04;2.97;;;1.83;;
15258;SDS011;34462;51.368;12.364;2023-02-27T15:32:45;1.97;;;1.77;;
15258;SDS011;34462;51.368;12.364;2023-02-27T15:35:16;2.80;;;2.10;;
15258;SDS011;34462;51.368;12.364;2023-02-27T15:37:49;2.00;;;1.80;;
15258;SDS011;34462;51.368;12.364;2023-02-27T15:40:21;1.90;;;1.70;;
15258;SDS011;34462;51.368;12.364;2023-02-27T15:42:53;2.00;;;1.80;;
15258;SDS011;34462;51.368;12.364;2023-02-27T15:45:24;2.60;;;2.10;;
15258;SDS011;34462;51.368;12.364;2023-02-27T15:47:56;3.80;;;2.03;;
15258;SDS011;34462;51.368;12.364;2023-02-27T15:50:27;3.10;;;2.10;;